createdAt,value
2023-02-16T00:01:58.096Z,3.33
2023-02-16T00:04:26.622Z,3.27
2023-02-16T00:06:53.192Z,3.28
2023-02-16T00:09:19.702Z,3.32
2023-02-16T00:11:46.225Z,3.37
2023-02-16T00:14:12.698Z,3.44
2023-02-16T00:16:39.169Z,3.50
2023-02-16T00:19:21.674Z,3.62
2023-02-16T00:21:48.640Z,3.69
2023-02-16T00:24:15.245Z,3.74
2023-02-16T00:26:41.787Z,3.78
2023-02-16T00:29:18.706Z,3.82
2023-02-16T00:31:45.218Z,3.84
2023-02-16T00:34:29.295Z,3.86
2023-02-16T00:36:56.814Z,3.89
2023-02-16T00:39:23.860Z,3.88
2023-02-16T00:41:50.417Z,3.86
2023-02-16T00:44:42.345Z,3.88
2023-02-16T00:47:18.719Z,3.85
2023-02-16T00:49:45.485Z,3.84
2023-02-16T00:52:21.076Z,3.87
2023-02-16T00:54:47.495Z,3.86
2023-02-16T00:57:16.248Z,3.87
2023-02-16T00:59:42.642Z,3.85
2023-02-16T01:02:09.083Z,3.84
2023-02-16T01:04:35.501Z,3.83
2023-02-16T01:07:01.981Z,3.87
2023-02-16T01:09:28.374Z,3.86
2023-02-16T01:11:54.807Z,3.85
2023-02-16T01:14:21.196Z,3.85
2023-02-16T01:16:47.611Z,3.86
2023-02-16T01:19:14.027Z,3.87
2023-02-16T01:21:40.464Z,3.83
2023-02-16T01:24:07.037Z,3.83
2023-02-16T01:26:40.503Z,3.82
2023-02-16T01:29:06.925Z,3.82
2023-02-16T01:31:33.376Z,3.83
2023-02-16T01:33:59.890Z,3.92
2023-02-16T01:36:45.899Z,3.85
2023-02-16T01:39:18.027Z,3.88
2023-02-16T01:41:49.351Z,3.80
2023-02-16T01:44:17.667Z,3.76
2023-02-16T01:46:53.205Z,3.75
2023-02-16T01:49:20.411Z,3.77
2023-02-16T01:52:07.232Z,3.73
2023-02-16T01:54:51.694Z,3.72
2023-02-16T01:57:23.295Z,3.74
2023-02-16T01:59:49.598Z,3.75
2023-02-16T02:02:35.485Z,3.74
2023-02-16T02:05:20.169Z,3.75
2023-02-16T02:07:59.834Z,3.79
2023-02-16T02:10:46.998Z,3.79
2023-02-16T02:13:44.301Z,3.84
2023-02-16T02:16:10.750Z,3.87
2023-02-16T02:18:37.243Z,3.90
2023-02-16T02:21:31.250Z,3.98
2023-02-16T02:24:35.942Z,3.99
2023-02-16T02:27:11.393Z,3.95
2023-02-16T02:30:12.198Z,3.92
2023-02-16T02:32:53.773Z,3.94
2023-02-16T02:35:32.403Z,3.94
2023-02-16T02:38:21.625Z,3.93
2023-02-16T02:41:07.777Z,3.92
2023-02-16T02:43:41.914Z,3.89
2023-02-16T02:46:15.962Z,3.88
2023-02-16T02:48:42.412Z,3.91
2023-02-16T02:51:08.745Z,3.88
2023-02-16T02:53:37.780Z,3.90
2023-02-16T02:56:04.320Z,3.92
2023-02-16T02:58:32.289Z,3.92
2023-02-16T03:00:58.677Z,3.90
2023-02-16T03:03:29.801Z,3.92
2023-02-16T03:06:03.144Z,3.96
2023-02-16T03:08:31.404Z,3.97
2023-02-16T03:11:04.091Z,3.90
2023-02-16T03:13:58.814Z,3.84
2023-02-16T03:16:34.755Z,3.84
2023-02-16T03:19:01.192Z,3.83
2023-02-16T03:21:27.656Z,3.88
2023-02-16T03:23:54.037Z,3.85
2023-02-16T03:26:20.413Z,3.85
2023-02-16T03:28:46.817Z,3.83
2023-02-16T03:31:17.346Z,3.80
2023-02-16T03:33:43.838Z,3.79
2023-02-16T03:36:10.270Z,3.80
2023-02-16T03:38:36.660Z,3.83
2023-02-16T03:41:04.038Z,3.80
2023-02-16T03:43:30.598Z,3.79
2023-02-16T03:45:57.057Z,3.75
2023-02-16T03:48:23.488Z,3.74
2023-02-16T03:50:49.901Z,3.71
2023-02-16T03:53:18.252Z,3.70
2023-02-16T03:55:46.197Z,3.67
2023-02-16T03:58:14.388Z,3.68
2023-02-16T04:00:40.779Z,3.68
2023-02-16T04:03:07.276Z,3.63
2023-02-16T04:05:33.706Z,3.59
2023-02-16T04:08:00.154Z,3.55
2023-02-16T04:10:26.603Z,3.60
2023-02-16T04:12:53.026Z,3.58
2023-02-16T04:15:21.097Z,3.56
2023-02-16T04:17:47.641Z,3.56
2023-02-16T04:20:16.352Z,3.55
2023-02-16T04:22:42.871Z,3.55
2023-02-16T04:25:09.301Z,3.56
2023-02-16T04:27:36.093Z,3.52
2023-02-16T04:30:02.597Z,3.56
2023-02-16T04:32:29.061Z,3.57
2023-02-16T04:34:55.453Z,3.55
2023-02-16T04:37:21.864Z,3.57
2023-02-16T04:39:48.254Z,3.57
2023-02-16T04:42:14.667Z,3.54
2023-02-16T04:44:41.084Z,3.53
2023-02-16T04:47:07.485Z,3.52
2023-02-16T04:49:33.870Z,3.52
2023-02-16T04:52:00.286Z,3.48
2023-02-16T04:54:27.039Z,3.48
2023-02-16T04:56:53.443Z,3.50
2023-02-16T04:59:19.850Z,3.51
2023-02-16T05:01:46.273Z,3.52
2023-02-16T05:04:12.696Z,3.52
2023-02-16T05:06:39.216Z,3.51
2023-02-16T05:09:05.907Z,3.47
2023-02-16T05:11:32.379Z,3.46
2023-02-16T05:13:59.253Z,3.43
2023-02-16T05:16:25.659Z,3.40
2023-02-16T05:18:52.192Z,3.37
2023-02-16T05:21:18.750Z,3.37
2023-02-16T05:23:45.142Z,3.38
2023-02-16T05:26:11.553Z,3.39
2023-02-16T05:28:37.968Z,3.35
2023-02-16T05:31:04.691Z,3.33
2023-02-16T05:33:31.315Z,3.34
2023-02-16T05:35:57.732Z,3.36
2023-02-16T05:38:24.146Z,3.37
2023-02-16T05:40:50.540Z,3.34
2023-02-16T05:43:16.950Z,3.34
2023-02-16T05:45:43.332Z,3.37
2023-02-16T05:48:09.745Z,3.37
2023-02-16T05:50:36.137Z,3.34
2023-02-16T05:53:02.547Z,3.34
2023-02-16T05:55:28.944Z,3.33
2023-02-16T05:57:55.362Z,3.33
2023-02-16T06:00:21.793Z,3.32
2023-02-16T06:02:48.288Z,3.32
2023-02-16T06:05:14.778Z,3.32
2023-02-16T06:07:41.194Z,3.29
2023-02-16T06:10:07.988Z,3.26
2023-02-16T06:12:34.422Z,3.25
2023-02-16T06:15:01.316Z,3.22
2023-02-16T06:17:27.718Z,3.24
2023-02-16T06:19:54.462Z,3.25
2023-02-16T06:22:20.972Z,3.26
2023-02-16T06:24:47.419Z,3.26
2023-02-16T06:27:13.800Z,3.27
2023-02-16T06:29:40.242Z,3.26
2023-02-16T06:32:06.678Z,3.29
2023-02-16T06:34:33.224Z,3.33
2023-02-16T06:36:59.611Z,3.36
2023-02-16T06:39:26.020Z,3.35
2023-02-16T06:41:52.416Z,3.29
2023-02-16T06:44:18.908Z,3.26
2023-02-16T06:46:46.389Z,3.32
2023-02-16T06:49:13.921Z,3.34
2023-02-16T06:51:40.433Z,3.39
2023-02-16T06:54:06.884Z,3.47
2023-02-16T06:56:33.288Z,3.51
2023-02-16T06:58:59.688Z,3.51
2023-02-16T07:01:26.318Z,3.53
2023-02-16T07:03:53.528Z,3.56
2023-02-16T07:06:20.096Z,3.56
2023-02-16T07:08:46.522Z,3.57
2023-02-16T07:11:12.988Z,3.66
2023-02-16T07:13:39.408Z,3.68
2023-02-16T07:16:06.382Z,3.66
2023-02-16T07:18:33.228Z,3.68
2023-02-16T07:20:59.649Z,3.70
2023-02-16T07:23:26.182Z,3.73
2023-02-16T07:25:52.788Z,3.77
2023-02-16T07:28:19.165Z,3.81
2023-02-16T07:30:45.582Z,3.85
2023-02-16T07:33:12.016Z,3.88
2023-02-16T07:35:38.489Z,3.94
2023-02-16T07:38:05.123Z,3.95
2023-02-16T07:40:31.658Z,3.98
2023-02-16T07:43:01.676Z,3.98
2023-02-16T07:45:28.210Z,4.07
2023-02-16T07:47:54.642Z,4.12
2023-02-16T07:50:21.074Z,4.16
2023-02-16T07:52:47.498Z,4.23
2023-02-16T07:55:13.886Z,4.31
2023-02-16T07:57:40.309Z,4.37
2023-02-16T08:00:07.606Z,4.46
2023-02-16T08:02:34.244Z,4.43
2023-02-16T08:05:00.809Z,4.45
2023-02-16T08:07:27.336Z,4.39
2023-02-16T08:09:53.776Z,4.49
2023-02-16T08:12:21.542Z,4.50
2023-02-16T08:14:48.053Z,4.50
2023-02-16T08:17:14.595Z,4.50
2023-02-16T08:19:41.763Z,4.56
2023-02-16T08:22:08.718Z,4.59
2023-02-16T08:24:35.236Z,4.64
2023-02-16T08:27:05.401Z,4.74
2023-02-16T08:29:33.415Z,4.81
2023-02-16T08:31:59.872Z,4.85
2023-02-16T08:34:26.380Z,4.87
2023-02-16T08:36:54.329Z,4.91
2023-02-16T08:39:21.022Z,4.97
2023-02-16T08:41:48.155Z,5.01
2023-02-16T08:44:17.416Z,5.07
2023-02-16T08:46:44.490Z,5.11
2023-02-16T08:49:10.940Z,5.20
2023-02-16T08:51:40.435Z,5.26
2023-02-16T08:54:07.075Z,5.30
2023-02-16T08:56:33.856Z,5.30
2023-02-16T08:59:00.275Z,5.35
2023-02-16T09:01:26.838Z,5.37
2023-02-16T09:03:53.509Z,5.37
2023-02-16T09:06:20.608Z,5.45
2023-02-16T09:08:54.298Z,5.48
2023-02-16T09:11:20.872Z,5.52
2023-02-16T09:13:47.274Z,5.54
2023-02-16T09:16:18.387Z,5.53
2023-02-16T09:18:45.048Z,5.53
2023-02-16T09:21:16.197Z,5.61
2023-02-16T09:23:44.865Z,5.65
2023-02-16T09:26:11.440Z,5.69
2023-02-16T09:28:38.035Z,5.72
2023-02-16T09:31:18.365Z,5.80
2023-02-16T09:33:44.835Z,5.83
2023-02-16T09:36:11.631Z,5.84
2023-02-16T09:38:38.174Z,5.81
2023-02-16T09:41:34.543Z,5.82
2023-02-16T09:44:07.074Z,5.87
2023-02-16T09:46:33.551Z,5.92
2023-02-16T09:49:01.472Z,5.93
2023-02-16T09:51:35.072Z,6.01
2023-02-16T09:54:27.446Z,6.07
2023-02-16T09:57:02.654Z,6.25
2023-02-16T10:00:26.521Z,6.43
2023-02-16T10:02:57.227Z,6.48
2023-02-16T10:05:43.974Z,6.50
2023-02-16T10:09:02.406Z,6.48
2023-02-16T10:11:44.994Z,6.44
2023-02-16T10:14:31.746Z,6.35
2023-02-16T10:17:18.950Z,6.28
2023-02-16T10:19:52.656Z,6.26
2023-02-16T10:22:39.252Z,6.27
2023-02-16T10:25:15.812Z,6.24
2023-02-16T10:27:43.667Z,6.29
2023-02-16T10:30:21.091Z,6.33
2023-02-16T10:32:57.266Z,6.41
2023-02-16T10:35:40.557Z,6.44
2023-02-16T10:38:14.560Z,6.46
2023-02-16T10:40:55.471Z,6.48
2023-02-16T10:43:53.098Z,6.50
2023-02-16T10:46:28.516Z,6.54
2023-02-16T10:48:55.215Z,6.64
2023-02-16T10:51:26.658Z,6.67
2023-02-16T10:53:54.567Z,6.75
2023-02-16T10:56:45.395Z,6.82
2023-02-16T10:59:19.073Z,6.81
2023-02-16T11:01:47.793Z,6.86
2023-02-16T11:04:34.573Z,6.92
2023-02-16T11:07:14.146Z,7.02
2023-02-16T11:09:41.217Z,7.09
2023-02-16T11:12:28.965Z,7.15
2023-02-16T11:15:13.393Z,7.10
2023-02-16T11:17:54.649Z,7.10
2023-02-16T11:20:26.635Z,7.08
2023-02-16T11:22:53.032Z,7.04
2023-02-16T11:25:25.940Z,7.05
2023-02-16T11:28:00.168Z,7.03
2023-02-16T11:30:34.794Z,7.06
2023-02-16T11:33:02.573Z,7.08
2023-02-16T11:35:30.731Z,7.05
2023-02-16T11:37:57.271Z,7.06
2023-02-16T11:40:30.137Z,7.08
2023-02-16T11:42:58.255Z,7.10
2023-02-16T11:45:26.186Z,7.13
2023-02-16T11:48:04.803Z,7.14
2023-02-16T11:50:32.944Z,7.16
2023-02-16T11:53:11.514Z,7.13
2023-02-16T11:55:42.430Z,7.13
2023-02-16T11:58:20.176Z,7.16
2023-02-16T12:01:10.341Z,7.16
2023-02-16T12:03:48.672Z,7.17
2023-02-16T12:06:30.354Z,7.17
2023-02-16T12:09:19.582Z,7.19
2023-02-16T12:12:09.154Z,7.22
2023-02-16T12:14:53.788Z,7.23
2023-02-16T12:17:51.498Z,7.22
2023-02-16T12:20:59.434Z,7.18
2023-02-16T12:23:58.734Z,7.15
2023-02-16T12:26:24.938Z,7.14
2023-02-16T12:29:00.405Z,7.17
2023-02-16T12:31:58.055Z,7.23
2023-02-16T12:34:48.677Z,7.21
2023-02-16T12:37:24.176Z,7.19
2023-02-16T12:40:12.690Z,7.19
2023-02-16T12:43:26.579Z,7.22
2023-02-16T12:45:53.010Z,7.22
2023-02-16T12:48:53.478Z,7.22
2023-02-16T12:51:35.769Z,7.26
2023-02-16T12:54:08.881Z,7.29
2023-02-16T12:57:04.805Z,7.30
2023-02-16T12:59:51.396Z,7.28
2023-02-16T13:02:22.389Z,7.29
2023-02-16T13:05:10.870Z,7.26
2023-02-16T13:07:44.827Z,7.31
2023-02-16T13:10:11.226Z,7.33
2023-02-16T13:12:44.259Z,7.37
2023-02-16T13:15:22.445Z,7.31
2023-02-16T13:17:49.554Z,7.27
2023-02-16T13:20:18.288Z,7.25
2023-02-16T13:23:15.629Z,7.23
2023-02-16T13:25:51.258Z,7.22
2023-02-16T13:28:26.692Z,7.22
2023-02-16T13:31:22.839Z,7.25
2023-02-16T13:34:20.111Z,7.28
2023-02-16T13:36:57.387Z,7.32
2023-02-16T13:39:43.957Z,7.35
2023-02-16T13:42:40.257Z,7.29
2023-02-16T13:45:21.281Z,7.27
2023-02-16T13:47:47.692Z,7.27
2023-02-16T13:50:23.158Z,7.26
2023-02-16T13:52:51.453Z,7.30
2023-02-16T13:55:27.908Z,7.32
2023-02-16T13:58:26.348Z,7.31
2023-02-16T14:00:52.843Z,7.35
2023-02-16T14:03:19.129Z,7.42
2023-02-16T14:06:07.705Z,7.37
2023-02-16T14:08:34.104Z,7.43
2023-02-16T14:11:02.381Z,7.43
2023-02-16T14:13:37.904Z,7.48
2023-02-16T14:16:11.546Z,7.49
2023-02-16T14:18:45.057Z,7.46
2023-02-16T14:21:51.008Z,7.48
2023-02-16T14:24:26.103Z,7.48
2023-02-16T14:27:11.230Z,7.43
2023-02-16T14:29:41.655Z,7.45
2023-02-16T14:32:20.240Z,7.43
2023-02-16T14:34:54.484Z,7.45
2023-02-16T14:37:27.098Z,7.42
2023-02-16T14:40:07.336Z,7.35
2023-02-16T14:42:34.368Z,7.39
2023-02-16T14:45:19.806Z,7.39
2023-02-16T14:48:05.163Z,7.37
2023-02-16T14:50:45.066Z,7.36
2023-02-16T14:53:21.313Z,7.36
2023-02-16T14:56:12.930Z,7.42
2023-02-16T14:58:44.020Z,7.42
2023-02-16T15:01:14.143Z,7.40
2023-02-16T15:03:45.345Z,7.41
2023-02-16T15:06:41.919Z,7.42
2023-02-16T15:09:41.483Z,7.43
2023-02-16T15:12:10.956Z,7.38
2023-02-16T15:15:01.708Z,7.36
2023-02-16T15:17:47.542Z,7.38
2023-02-16T15:20:28.925Z,7.33
2023-02-16T15:23:00.096Z,7.35
2023-02-16T15:25:31.618Z,7.32
2023-02-16T15:28:10.171Z,7.30
2023-02-16T15:30:37.483Z,7.27
2023-02-16T15:33:05.983Z,7.29
2023-02-16T15:35:42.326Z,7.29
2023-02-16T15:38:14.718Z,7.25
2023-02-16T15:40:41.120Z,7.20
2023-02-16T15:43:37.957Z,7.18
2023-02-16T15:46:06.957Z,7.15
2023-02-16T15:48:37.198Z,7.16
2023-02-16T15:51:15.742Z,7.12
2023-02-16T15:53:48.351Z,7.11
2023-02-16T15:56:44.375Z,7.07
2023-02-16T15:59:25.814Z,7.05
2023-02-16T16:01:57.552Z,7.05
2023-02-16T16:04:24.911Z,7.03
2023-02-16T16:06:51.412Z,6.95
2023-02-16T16:09:28.424Z,6.97
2023-02-16T16:11:56.666Z,6.97
2023-02-16T16:14:23.381Z,6.93
2023-02-16T16:16:49.958Z,6.90
2023-02-16T16:19:20.744Z,6.93
2023-02-16T16:21:53.655Z,6.93
2023-02-16T16:24:31.612Z,6.87
2023-02-16T16:26:58.897Z,6.84
2023-02-16T16:29:29.975Z,6.86
2023-02-16T16:31:56.500Z,6.85
2023-02-16T16:34:39.425Z,6.87
2023-02-16T16:37:07.195Z,6.83
2023-02-16T16:39:35.161Z,6.88
2023-02-16T16:42:22.402Z,6.84
2023-02-16T16:45:01.899Z,6.81
2023-02-16T16:47:33.735Z,6.84
2023-02-16T16:50:06.224Z,6.84
2023-02-16T16:52:32.557Z,6.81
2023-02-16T16:54:58.952Z,6.78
2023-02-16T16:57:25.361Z,6.83
2023-02-16T16:59:51.779Z,6.80
2023-02-16T17:02:18.228Z,6.78
2023-02-16T17:04:44.640Z,6.79
2023-02-16T17:07:11.033Z,6.74
2023-02-16T17:09:37.471Z,6.74
2023-02-16T17:12:03.971Z,6.74
2023-02-16T17:14:30.378Z,6.73
2023-02-16T17:16:56.781Z,6.73
2023-02-16T17:19:23.376Z,6.72
2023-02-16T17:21:49.795Z,6.73
2023-02-16T17:24:16.220Z,6.68
2023-02-16T17:26:42.686Z,6.75
2023-02-16T17:29:09.610Z,6.77
2023-02-16T17:31:36.104Z,6.77
2023-02-16T17:34:02.554Z,6.75
2023-02-16T17:36:28.997Z,6.73
2023-02-16T17:38:55.448Z,6.73
2023-02-16T17:41:26.609Z,6.74
2023-02-16T17:43:53.386Z,6.74
2023-02-16T17:46:19.997Z,6.71
2023-02-16T17:48:51.099Z,6.75
2023-02-16T17:51:18.920Z,6.74
2023-02-16T17:53:45.376Z,6.71
2023-02-16T17:56:15.847Z,6.73
2023-02-16T17:58:42.450Z,6.70
2023-02-16T18:01:10.946Z,6.72
2023-02-16T18:03:37.380Z,6.71
2023-02-16T18:06:04.220Z,6.74
2023-02-16T18:08:30.743Z,6.75
2023-02-16T18:10:57.685Z,6.72
2023-02-16T18:13:24.108Z,6.75
2023-02-16T18:15:50.517Z,6.74
2023-02-16T18:18:17.594Z,6.75
2023-02-16T18:20:44.048Z,6.71
2023-02-16T18:23:10.479Z,6.72
2023-02-16T18:25:36.953Z,6.71
2023-02-16T18:28:10.624Z,6.71
2023-02-16T18:30:37.091Z,6.69
2023-02-16T18:33:03.571Z,6.68
2023-02-16T18:35:31.464Z,6.69
2023-02-16T18:37:57.855Z,6.67
2023-02-16T18:40:24.274Z,6.69
2023-02-16T18:42:50.680Z,6.70
2023-02-16T18:45:17.136Z,6.69
2023-02-16T18:47:43.640Z,6.72
2023-02-16T18:50:10.139Z,6.72
2023-02-16T18:52:36.550Z,6.70
2023-02-16T18:55:02.990Z,6.70
2023-02-16T18:57:29.372Z,6.69
2023-02-16T18:59:55.803Z,6.69
2023-02-16T19:02:22.215Z,6.69
2023-02-16T19:04:48.636Z,6.71
2023-02-16T19:07:15.208Z,6.70
2023-02-16T19:09:41.664Z,6.69
2023-02-16T19:12:09.217Z,6.70
2023-02-16T19:14:35.709Z,6.71
2023-02-16T19:17:02.194Z,6.72
2023-02-16T19:19:30.148Z,6.70
2023-02-16T19:21:57.366Z,6.71
2023-02-16T19:24:23.773Z,6.72
2023-02-16T19:26:50.246Z,6.72
2023-02-16T19:29:17.761Z,6.75
2023-02-16T19:31:44.487Z,6.77
2023-02-16T19:34:11.029Z,6.76
2023-02-16T19:36:37.479Z,6.76
2023-02-16T19:39:03.929Z,6.74
2023-02-16T19:41:32.507Z,6.75
2023-02-16T19:43:59.033Z,6.73
2023-02-16T19:46:25.772Z,6.72
2023-02-16T19:48:55.107Z,6.73
2023-02-16T19:51:21.611Z,6.74
2023-02-16T19:53:48.059Z,6.75
2023-02-16T19:56:16.276Z,6.73
2023-02-16T19:58:42.723Z,6.72
2023-02-16T20:01:20.216Z,6.72
2023-02-16T20:03:46.770Z,6.76
2023-02-16T20:06:19.967Z,6.78
2023-02-16T20:08:46.752Z,6.75
2023-02-16T20:11:13.415Z,6.79
2023-02-16T20:13:39.828Z,6.81
2023-02-16T20:16:07.487Z,6.72
2023-02-16T20:18:34.389Z,6.77
2023-02-16T20:21:04.940Z,6.77
2023-02-16T20:23:31.413Z,6.79
2023-02-16T20:25:57.865Z,6.80
2023-02-16T20:28:24.385Z,6.78
2023-02-16T20:30:51.359Z,6.78
2023-02-16T20:33:17.966Z,6.78
2023-02-16T20:35:44.373Z,6.77
2023-02-16T20:38:12.958Z,6.78
2023-02-16T20:40:39.415Z,6.80
2023-02-16T20:43:05.968Z,6.78
2023-02-16T20:45:32.427Z,6.80
2023-02-16T20:47:58.815Z,6.84
2023-02-16T20:50:25.205Z,6.83
2023-02-16T20:52:51.603Z,6.83
2023-02-16T20:55:18.161Z,6.81
2023-02-16T20:57:45.047Z,6.85
2023-02-16T21:00:14.937Z,6.86
2023-02-16T21:02:41.353Z,6.83
2023-02-16T21:05:08.730Z,6.82
2023-02-16T21:07:35.257Z,6.85
2023-02-16T21:10:01.701Z,6.90
2023-02-16T21:12:28.127Z,6.86
2023-02-16T21:14:54.547Z,6.93
2023-02-16T21:17:20.957Z,6.90
2023-02-16T21:19:47.445Z,6.92
2023-02-16T21:22:13.844Z,6.89
2023-02-16T21:24:41.525Z,6.93
2023-02-16T21:27:07.970Z,6.90
2023-02-16T21:29:34.434Z,6.94
2023-02-16T21:32:00.891Z,6.94
2023-02-16T21:34:27.411Z,6.93
2023-02-16T21:36:53.855Z,6.90
2023-02-16T21:39:21.132Z,6.92
2023-02-16T21:41:48.057Z,6.93
2023-02-16T21:44:15.540Z,6.95
2023-02-16T21:46:46.560Z,6.97
2023-02-16T21:49:17.420Z,7.00
2023-02-16T21:51:44.137Z,6.99
2023-02-16T21:54:14.256Z,6.97
2023-02-16T21:56:45.798Z,6.99
2023-02-16T21:59:13.668Z,7.00
2023-02-16T22:01:41.758Z,7.00
2023-02-16T22:04:09.837Z,7.02
2023-02-16T22:06:38.548Z,7.05
2023-02-16T22:09:09.837Z,7.07
2023-02-16T22:11:36.273Z,7.07
2023-02-16T22:14:02.803Z,7.05
2023-02-16T22:16:29.889Z,7.06
2023-02-16T22:19:00.226Z,7.07
2023-02-16T22:21:27.204Z,7.10
2023-02-16T22:23:53.815Z,7.11
2023-02-16T22:26:25.326Z,7.10
2023-02-16T22:28:51.755Z,7.10
2023-02-16T22:31:19.304Z,7.15
2023-02-16T22:33:45.844Z,7.14
2023-02-16T22:36:12.361Z,7.15
2023-02-16T22:38:38.769Z,7.12
2023-02-16T22:41:06.154Z,7.16
2023-02-16T22:43:32.642Z,7.16
2023-02-16T22:45:59.101Z,7.22
2023-02-16T22:48:25.543Z,7.22
2023-02-16T22:50:59.371Z,7.21
2023-02-16T22:53:27.018Z,7.19
2023-02-16T22:55:53.544Z,7.27
2023-02-16T22:58:20.065Z,7.29
2023-02-16T23:00:47.085Z,7.27
2023-02-16T23:03:13.522Z,7.30
2023-02-16T23:05:39.936Z,7.29
2023-02-16T23:08:06.375Z,7.35
2023-02-16T23:10:32.758Z,7.33
2023-02-16T23:12:59.158Z,7.36
2023-02-16T23:15:25.570Z,7.35
2023-02-16T23:17:51.983Z,7.36
2023-02-16T23:20:18.424Z,7.33
2023-02-16T23:22:44.808Z,7.37
2023-02-16T23:25:11.228Z,7.39
2023-02-16T23:27:37.623Z,7.37
2023-02-16T23:30:04.666Z,7.40
2023-02-16T23:32:31.089Z,7.39
2023-02-16T23:34:57.502Z,7.42
2023-02-16T23:37:23.897Z,7.41
2023-02-16T23:39:50.300Z,7.48
2023-02-16T23:42:16.686Z,7.50
2023-02-16T23:44:43.088Z,7.48
2023-02-16T23:47:09.505Z,7.49
2023-02-16T23:49:35.896Z,7.49
2023-02-16T23:52:02.332Z,7.50
2023-02-16T23:54:28.734Z,7.48
2023-02-16T23:56:55.127Z,7.50
2023-02-16T23:59:21.557Z,7.53
